Time;durP1;ratioP1;P1;durP2;ratioP2;P2;SDS_P1;SDS_P2;PMS_P1;PMS_P2;Temp;Humidity;BMP_temperature;BMP_pressure;BME280_temperature;BME280_humidity;BME280_pressure;Samples;Min_cycle;Max_cycle;Signal;HPM_P1;HPM_P2
2022/07/29 00:01:49;;;;;;;6.85;4.18;;;;;;;;;;5069059;28;20032;-82
2022/07/29 00:04:15;;;;;;;7.68;5.25;;;;;;;;;;5061427;28;20068;-83
2022/07/29 00:06:41;;;;;;;6.95;4.95;;;;;;;;;;5070876;28;20033;-83
2022/07/29 00:09:07;;;;;;;8.27;4.85;;;;;;;;;;5065019;28;20090;-84
2022/07/29 00:11:34;;;;;;;6.75;4.90;;;;;;;;;;5060236;28;20025;-83
2022/07/29 00:14:00;;;;;;;7.50;5.45;;;;;;;;;;5060736;28;20013;-83
2022/07/29 00:16:26;;;;;;;7.30;4.95;;;;;;;;;;5060743;28;20029;-83
2022/07/29 00:18:52;;;;;;;7.35;5.53;;;;;;;;;;5060004;28;20502;-83
2022/07/29 00:21:18;;;;;;;6.68;5.20;;;;;;;;;;5060197;28;20033;-83
2022/07/29 00:23:44;;;;;;;7.40;5.72;;;;;;;;;;5058219;28;20028;-82
2022/07/29 00:26:10;;;;;;;7.25;5.28;;;;;;;;;;5058628;28;20455;-82
2022/07/29 00:28:36;;;;;;;6.32;4.68;;;;;;;;;;5058432;28;20045;-82
2022/07/29 00:31:02;;;;;;;8.68;5.07;;;;;;;;;;5055745;28;20025;-82
2022/07/29 00:33:29;;;;;;;6.72;4.82;;;;;;;;;;5056651;28;20112;-83
2022/07/29 00:35:54;;;;;;;6.60;4.90;;;;;;;;;;5063446;28;20123;-82
2022/07/29 00:38:21;;;;;;;7.45;4.97;;;;;;;;;;5058578;28;20475;-82
2022/07/29 00:40:47;;;;;;;6.82;4.80;;;;;;;;;;5058035;28;20108;-83
2022/07/29 00:43:14;;;;;;;8.38;5.70;;;;;;;;;;5059473;28;20044;-83
2022/07/29 00:45:41;;;;;;;6.72;5.20;;;;;;;;;;5061227;28;20491;-83
2022/07/29 00:48:08;;;;;;;8.13;5.60;;;;;;;;;;5061710;28;20091;-83
2022/07/29 00:50:34;;;;;;;7.95;6.07;;;;;;;;;;5059105;28;20078;-83
2022/07/29 00:53:01;;;;;;;7.78;5.60;;;;;;;;;;5072500;28;20059;-83
2022/07/29 00:55:27;;;;;;;8.18;5.90;;;;;;;;;;5080469;28;20021;-83
2022/07/29 00:57:53;;;;;;;7.85;6.32;;;;;;;;;;5062359;28;20425;-83
2022/07/29 01:00:23;;;;;;;8.82;5.93;;;;;;;;;;5067837;28;20033;-83
2022/07/29 01:02:50;;;;;;;8.15;5.80;;;;;;;;;;5072924;28;20089;-83
2022/07/29 01:05:20;;;;;;;12.43;5.95;;;;;;;;;;5060062;28;20033;-82
2022/07/29 01:07:46;;;;;;;7.35;5.10;;;;;;;;;;5059689;28;20032;-83
2022/07/29 01:10:13;;;;;;;8.45;5.40;;;;;;;;;;5041368;28;20368;-83
2022/07/29 01:12:40;;;;;;;6.93;4.97;;;;;;;;;;5071507;28;20032;-82
2022/07/29 01:15:08;;;;;;;7.45;5.60;;;;;;;;;;5063077;28;20360;-83
2022/07/29 01:17:39;;;;;;;8.30;6.53;;;;;;;;;;5059521;28;20119;-83
2022/07/29 01:20:11;;;;;;;7.85;5.88;;;;;;;;;;5058968;28;20414;-82
2022/07/29 01:22:57;;;;;;;7.32;5.55;;;;;;;;;;5058894;28;20035;-83
2022/07/29 01:25:50;;;;;;;10.25;6.05;;;;;;;;;;5042191;28;20029;-83
2022/07/29 01:28:35;;;;;;;8.57;5.22;;;;;;;;;;5002002;28;20036;-83
2022/07/29 01:31:03;;;;;;;8.00;5.82;;;;;;;;;;5038746;28;20096;-81
2022/07/29 01:33:48;;;;;;;8.23;6.00;;;;;;;;;;5052551;28;20484;-83
2022/07/29 01:36:16;;;;;;;8.18;5.60;;;;;;;;;;5038826;28;20087;-83
2022/07/29 01:38:44;;;;;;;7.60;5.82;;;;;;;;;;5050567;28;20086;-83
2022/07/29 01:41:13;;;;;;;7.38;5.15;;;;;;;;;;5039187;28;20040;-83
2022/07/29 01:43:56;;;;;;;7.43;5.32;;;;;;;;;;5041784;28;20045;-82
2022/07/29 01:46:22;;;;;;;;;;;;;;;;;;5039275;28;20033;-83
2022/07/29 01:48:55;;;;;;;7.30;5.32;;;;;;;;;;5038924;28;19912;-83
2022/07/29 01:51:26;;;;;;;8.40;5.80;;;;;;;;;;5040566;28;20021;-83
2022/07/29 01:54:09;;;;;;;8.45;6.05;;;;;;;;;;5042016;28;20025;-83
2022/07/29 01:56:36;;;;;;;8.48;6.28;;;;;;;;;;5039529;28;20403;-82
2022/07/29 01:59:05;;;;;;;10.15;6.50;;;;;;;;;;5037784;28;20057;-81
2022/07/29 02:01:33;;;;;;;8.60;6.20;;;;;;;;;;5059287;28;20067;-83
2022/07/29 02:04:00;;;;;;;7.28;5.60;;;;;;;;;;5039040;28;20034;-82
2022/07/29 02:06:26;;;;;;;11.05;6.63;;;;;;;;;;5038409;28;20052;-83
2022/07/29 02:08:53;;;;;;;7.10;5.63;;;;;;;;;;5040386;28;20071;-81
2022/07/29 02:11:19;;;;;;;8.05;5.60;;;;;;;;;;5038262;28;20056;-83
2022/07/29 02:13:45;;;;;;;8.77;5.72;;;;;;;;;;5039268;28;20029;-83
2022/07/29 02:16:12;;;;;;;7.45;5.32;;;;;;;;;;5039693;28;20033;-83
2022/07/29 02:18:41;;;;;;;9.20;6.15;;;;;;;;;;5038161;28;20037;-83
2022/07/29 02:21:08;;;;;;;7.88;5.80;;;;;;;;;;5038659;28;20103;-83
2022/07/29 02:23:36;;;;;;;9.00;6.13;;;;;;;;;;5038653;28;20087;-83
2022/07/29 02:26:02;;;;;;;9.00;6.15;;;;;;;;;;5039077;28;20144;-84
2022/07/29 02:28:29;;;;;;;7.15;5.72;;;;;;;;;;5053957;28;20049;-83
2022/07/29 02:30:57;;;;;;;8.60;6.40;;;;;;;;;;5057861;28;20025;-83
2022/07/29 02:33:24;;;;;;;9.35;6.10;;;;;;;;;;5058828;28;20460;-83
2022/07/29 02:35:50;;;;;;;10.48;6.63;;;;;;;;;;5076645;28;20044;-83
2022/07/29 02:41:11;;;;;;;9.88;6.95;;;;;;;;;;5058328;28;20078;-82
2022/07/29 02:43:37;;;;;;;8.55;6.57;;;;;;;;;;5058247;28;20021;-83
2022/07/29 02:46:05;;;;;;;7.88;6.10;;;;;;;;;;5058267;28;20087;-83
2022/07/29 02:48:38;;;;;;;11.15;6.15;;;;;;;;;;5064376;28;20036;-83
2022/07/29 02:51:12;;;;;;;8.20;5.95;;;;;;;;;;5078743;28;20561;-83
2022/07/29 02:53:39;;;;;;;8.30;6.25;;;;;;;;;;5055343;28;20061;-83
2022/07/29 02:56:08;;;;;;;8.32;5.80;;;;;;;;;;5057320;28;20060;-83
2022/07/29 02:58:38;;;;;;;8.38;6.03;;;;;;;;;;5061234;28;20018;-83
2022/07/29 03:01:08;;;;;;;8.25;5.95;;;;;;;;;;5067232;28;20059;-82
2022/07/29 03:03:36;;;;;;;10.40;6.68;;;;;;;;;;5048392;28;20033;-83
2022/07/29 03:06:03;;;;;;;8.60;6.00;;;;;;;;;;5065422;28;20036;-83
2022/07/29 03:08:29;;;;;;;9.77;7.03;;;;;;;;;;5057690;28;20056;-83
2022/07/29 03:10:56;;;;;;;9.63;6.43;;;;;;;;;;5057530;28;20028;-83
2022/07/29 03:13:22;;;;;;;9.70;6.13;;;;;;;;;;5058209;28;20078;-82
2022/07/29 03:15:48;;;;;;;8.68;6.10;;;;;;;;;;5058309;28;20053;-83
2022/07/29 03:18:15;;;;;;;9.50;6.03;;;;;;;;;;5041786;28;20039;-83
2022/07/29 03:20:41;;;;;;;9.07;5.70;;;;;;;;;;5074927;28;20063;-83
2022/07/29 03:23:08;;;;;;;8.80;6.20;;;;;;;;;;5066982;28;20422;-83
2022/07/29 03:25:34;;;;;;;7.95;6.20;;;;;;;;;;5056448;28;20515;-83
2022/07/29 03:28:00;;;;;;;7.60;6.00;;;;;;;;;;5056126;28;20053;-83
2022/07/29 03:30:30;;;;;;;10.00;6.25;;;;;;;;;;5059970;28;20495;-83
2022/07/29 03:32:56;;;;;;;8.68;6.07;;;;;;;;;;5066741;28;20043;-83
2022/07/29 03:35:22;;;;;;;9.07;6.72;;;;;;;;;;5062096;28;20029;-83
2022/07/29 03:37:48;;;;;;;8.63;6.10;;;;;;;;;;5065966;28;20055;-83
2022/07/29 03:40:18;;;;;;;9.10;6.18;;;;;;;;;;5060111;28;20108;-83
2022/07/29 03:42:46;;;;;;;9.13;6.72;;;;;;;;;;5059331;28;20397;-82
2022/07/29 03:45:14;;;;;;;8.88;6.78;;;;;;;;;;5078148;28;20024;-83
2022/07/29 03:47:43;;;;;;;8.05;5.90;;;;;;;;;;5066343;28;20503;-83
2022/07/29 03:50:11;;;;;;;9.13;6.00;;;;;;;;;;5077903;28;20047;-82
2022/07/29 03:52:38;;;;;;;8.35;6.05;;;;;;;;;;5058686;28;20024;-83
2022/07/29 03:55:04;;;;;;;8.80;6.57;;;;;;;;;;5073098;28;20044;-83
2022/07/29 03:57:31;;;;;;;8.40;6.43;;;;;;;;;;5058670;28;20025;-83
2022/07/29 03:59:57;;;;;;;8.85;5.97;;;;;;;;;;5058305;28;20025;-80
2022/07/29 04:02:25;;;;;;;8.93;6.70;;;;;;;;;;5058222;28;20025;-83
2022/07/29 04:04:51;;;;;;;8.43;6.43;;;;;;;;;;5072681;28;20025;-83
2022/07/29 04:07:17;;;;;;;10.30;6.90;;;;;;;;;;5057226;28;20046;-80
2022/07/29 04:09:43;;;;;;;8.73;6.80;;;;;;;;;;5056852;28;20399;-83
2022/07/29 04:12:10;;;;;;;8.15;5.95;;;;;;;;;;5056867;28;20414;-82
2022/07/29 04:14:36;;;;;;;9.27;6.13;;;;;;;;;;5057559;28;20029;-82
2022/07/29 04:17:03;;;;;;;10.15;7.07;;;;;;;;;;5057441;28;20032;-83
2022/07/29 04:19:29;;;;;;;8.82;6.72;;;;;;;;;;5069347;28;20128;-82
2022/07/29 04:21:55;;;;;;;11.45;7.00;;;;;;;;;;5057547;28;20403;-83
2022/07/29 04:24:21;;;;;;;9.63;6.75;;;;;;;;;;5058361;28;20029;-82
2022/07/29 04:26:48;;;;;;;7.70;6.13;;;;;;;;;;5043804;28;20116;-83
2022/07/29 04:29:14;;;;;;;9.25;6.57;;;;;;;;;;5061060;28;20049;-83
2022/07/29 04:31:40;;;;;;;9.15;6.55;;;;;;;;;;5060649;28;20021;-83
2022/07/29 04:34:06;;;;;;;8.05;6.22;;;;;;;;;;5066287;28;20036;-81
2022/07/29 04:36:32;;;;;;;8.73;6.28;;;;;;;;;;5064967;28;20071;-83
2022/07/29 04:38:58;;;;;;;10.10;6.82;;;;;;;;;;5073817;28;20029;-83
2022/07/29 04:41:24;;;;;;;8.52;6.85;;;;;;;;;;5073228;28;20501;-83
2022/07/29 04:43:53;;;;;;;9.82;6.88;;;;;;;;;;5059564;28;20108;-82
2022/07/29 04:46:19;;;;;;;9.20;6.85;;;;;;;;;;5040724;28;20028;-81
2022/07/29 04:48:48;;;;;;;7.40;5.75;;;;;;;;;;5058037;28;20025;-82
2022/07/29 04:51:14;;;;;;;8.52;6.82;;;;;;;;;;5060445;28;20112;-82
2022/07/29 04:53:40;;;;;;;8.77;6.65;;;;;;;;;;5059839;28;20021;-83
2022/07/29 04:56:07;;;;;;;10.32;6.70;;;;;;;;;;5044081;28;20055;-83
2022/07/29 04:58:35;;;;;;;8.88;6.72;;;;;;;;;;5041539;28;20119;-83
2022/07/29 05:01:01;;;;;;;9.35;6.38;;;;;;;;;;5058528;28;20490;-83
2022/07/29 05:03:27;;;;;;;7.57;5.88;;;;;;;;;;5058686;28;20048;-83
2022/07/29 05:05:53;;;;;;;9.48;6.72;;;;;;;;;;5065948;28;20447;-81
2022/07/29 05:08:19;;;;;;;8.68;6.10;;;;;;;;;;5071943;28;20025;-83
2022/07/29 05:10:45;;;;;;;9.23;6.28;;;;;;;;;;5059982;28;20490;-83
2022/07/29 05:13:11;;;;;;;8.75;6.50;;;;;;;;;;5059564;28;20086;-81
2022/07/29 05:15:37;;;;;;;8.90;6.35;;;;;;;;;;5062638;28;20017;-82
2022/07/29 05:18:04;;;;;;;10.15;6.60;;;;;;;;;;5077169;28;20040;-82
2022/07/29 05:20:30;;;;;;;9.18;6.28;;;;;;;;;;5053967;28;20037;-84
2022/07/29 05:22:57;;;;;;;8.38;6.03;;;;;;;;;;5056604;28;20021;-82
2022/07/29 05:25:23;;;;;;;9.02;5.95;;;;;;;;;;5030654;28;20033;-83
2022/07/29 05:27:49;;;;;;;8.32;6.22;;;;;;;;;;5044442;28;20041;-82
2022/07/29 05:30:15;;;;;;;9.43;6.00;;;;;;;;;;5055335;28;20051;-82
2022/07/29 05:32:41;;;;;;;8.45;6.32;;;;;;;;;;5051712;28;20044;-82
2022/07/29 05:35:08;;;;;;;8.80;6.50;;;;;;;;;;5054731;28;20552;-83
2022/07/29 05:37:34;;;;;;;9.35;6.53;;;;;;;;;;5051281;28;20049;-83
2022/07/29 05:40:00;;;;;;;9.23;6.22;;;;;;;;;;5055936;28;20032;-82
2022/07/29 05:42:26;;;;;;;9.90;6.97;;;;;;;;;;5055103;28;20387;-82
2022/07/29 05:44:52;;;;;;;8.35;6.57;;;;;;;;;;5055348;28;20319;-84
2022/07/29 05:47:18;;;;;;;9.10;5.80;;;;;;;;;;5054545;28;20052;-83
2022/07/29 05:49:45;;;;;;;8.23;6.05;;;;;;;;;;5024568;28;20021;-82
2022/07/29 05:52:13;;;;;;;10.13;6.10;;;;;;;;;;5034800;28;20017;-84
2022/07/29 05:54:39;;;;;;;11.52;6.82;;;;;;;;;;5053617;28;20020;-84
2022/07/29 05:57:05;;;;;;;9.57;6.13;;;;;;;;;;5037615;28;20364;-84
2022/07/29 05:59:32;;;;;;;8.57;6.55;;;;;;;;;;5035813;28;20614;-82
2022/07/29 06:01:58;;;;;;;9.40;6.15;;;;;;;;;;5054544;28;20021;-84
2022/07/29 06:04:24;;;;;;;9.15;6.55;;;;;;;;;;5060706;28;20024;-84
2022/07/29 06:06:50;;;;;;;7.75;5.80;;;;;;;;;;5056773;28;20100;-84
2022/07/29 06:09:16;;;;;;;8.73;6.47;;;;;;;;;;5055940;28;20021;-84
2022/07/29 06:11:42;;;;;;;8.32;6.70;;;;;;;;;;5055083;28;20020;-83
2022/07/29 06:14:08;;;;;;;8.90;6.20;;;;;;;;;;5051962;28;20058;-84
2022/07/29 06:16:34;;;;;;;9.05;6.72;;;;;;;;;;5053574;28;20047;-84
2022/07/29 06:19:00;;;;;;;8.52;5.90;;;;;;;;;;5056062;28;20032;-82
2022/07/29 06:21:26;;;;;;;10.23;6.82;;;;;;;;;;5040577;28;20028;-84
2022/07/29 06:23:52;;;;;;;9.55;6.18;;;;;;;;;;5055386;28;20020;-83
2022/07/29 06:26:18;;;;;;;9.43;6.35;;;;;;;;;;5058591;28;20078;-82
2022/07/29 06:28:44;;;;;;;10.20;6.78;;;;;;;;;;5049204;28;20118;-84
2022/07/29 06:31:10;;;;;;;9.32;6.32;;;;;;;;;;5054512;28;20021;-84
2022/07/29 06:33:36;;;;;;;7.88;6.35;;;;;;;;;;5058320;28;20032;-84
2022/07/29 06:36:04;;;;;;;10.85;7.28;;;;;;;;;;5055940;28;20057;-85
2022/07/29 06:38:30;;;;;;;9.02;7.00;;;;;;;;;;5052470;28;20037;-84
2022/07/29 06:41:03;;;;;;;9.55;6.88;;;;;;;;;;5052636;28;20482;-84
2022/07/29 06:43:31;;;;;;;10.63;7.53;;;;;;;;;;5049782;28;20056;-83
2022/07/29 06:46:01;;;;;;;9.40;7.07;;;;;;;;;;5054114;28;20025;-83
2022/07/29 06:48:28;;;;;;;8.27;6.60;;;;;;;;;;5034063;28;20063;-85
2022/07/29 06:50:54;;;;;;;7.88;6.10;;;;;;;;;;5036864;28;20021;-85
2022/07/29 06:53:21;;;;;;;8.45;6.63;;;;;;;;;;5060804;28;20012;-83
2022/07/29 06:55:47;;;;;;;9.82;6.13;;;;;;;;;;5077340;28;20028;-83
2022/07/29 06:58:15;;;;;;;9.10;6.10;;;;;;;;;;5078366;28;20111;-85
2022/07/29 07:00:41;;;;;;;8.23;6.57;;;;;;;;;;5060553;28;20031;-85
2022/07/29 07:03:07;;;;;;;10.43;7.55;;;;;;;;;;5049863;28;20375;-86
2022/07/29 07:05:33;;;;;;;9.32;6.78;;;;;;;;;;5061955;28;20035;-86
2022/07/29 07:07:59;;;;;;;9.40;6.88;;;;;;;;;;5079860;28;20340;-84
2022/07/29 07:10:25;;;;;;;10.05;6.25;;;;;;;;;;5081052;28;20082;-86
2022/07/29 07:12:51;;;;;;;10.27;6.65;;;;;;;;;;5077527;28;20020;-85
2022/07/29 07:15:21;;;;;;;8.77;6.10;;;;;;;;;;5079146;28;20025;-85
2022/07/29 07:17:48;;;;;;;8.30;6.93;;;;;;;;;;5079648;28;20048;-85
2022/07/29 07:20:14;;;;;;;9.40;6.95;;;;;;;;;;5079525;28;20528;-85
2022/07/29 07:22:40;;;;;;;9.75;7.25;;;;;;;;;;5077486;28;20025;-85
2022/07/29 07:25:06;;;;;;;10.25;7.47;;;;;;;;;;5057067;28;20021;-86
2022/07/29 07:27:32;;;;;;;7.95;5.80;;;;;;;;;;5064177;28;20060;-85
2022/07/29 07:29:58;;;;;;;9.68;7.47;;;;;;;;;;5061866;28;20079;-86
2022/07/29 07:32:24;;;;;;;9.02;6.97;;;;;;;;;;5058930;28;20067;-85
2022/07/29 07:34:50;;;;;;;9.77;7.05;;;;;;;;;;5060905;28;20553;-85
2022/07/29 07:37:19;;;;;;;11.20;8.25;;;;;;;;;;5078616;28;20048;-85
2022/07/29 07:39:45;;;;;;;10.18;6.57;;;;;;;;;;5047489;28;20030;-86
2022/07/29 07:42:12;;;;;;;9.10;6.53;;;;;;;;;;5059341;28;20021;-85
2022/07/29 07:44:38;;;;;;;14.15;7.03;;;;;;;;;;5058705;28;20032;-86
2022/07/29 07:47:05;;;;;;;9.13;6.07;;;;;;;;;;5058255;28;20107;-85
2022/07/29 07:49:31;;;;;;;8.68;6.65;;;;;;;;;;5058969;28;20021;-85
2022/07/29 07:51:57;;;;;;;8.60;6.32;;;;;;;;;;5058876;28;20052;-84
2022/07/29 07:54:23;;;;;;;12.80;7.53;;;;;;;;;;5074185;28;20028;-84
2022/07/29 07:56:49;;;;;;;8.30;6.28;;;;;;;;;;5076395;28;20536;-84
2022/07/29 07:59:15;;;;;;;8.13;6.22;;;;;;;;;;5075108;28;20035;-85
2022/07/29 08:01:42;;;;;;;9.32;6.93;;;;;;;;;;5059523;28;20033;-85
2022/07/29 08:04:08;;;;;;;10.82;6.53;;;;;;;;;;5060680;28;20100;-85
2022/07/29 08:06:37;;;;;;;7.78;6.35;;;;;;;;;;5063027;28;20029;-85
2022/07/29 08:15:30;;;;;;;10.27;6.55;;;;;;;;;;5063556;28;20398;-84
2022/07/29 08:17:56;;;;;;;8.30;7.03;;;;;;;;;;5054904;28;20093;-83
2022/07/29 08:20:22;;;;;;;8.63;6.85;;;;;;;;;;5052461;28;20029;-82
2022/07/29 08:22:48;;;;;;;7.32;6.53;;;;;;;;;;5040780;28;20030;-83
2022/07/29 08:25:13;;;;;;;9.13;6.43;;;;;;;;;;5052763;28;20032;-83
2022/07/29 08:27:39;;;;;;;9.48;6.68;;;;;;;;;;5048700;28;20509;-83
2022/07/29 08:30:06;;;;;;;8.80;6.63;;;;;;;;;;5056872;28;20087;-83
2022/07/29 08:32:32;;;;;;;10.77;6.97;;;;;;;;;;5061532;28;20077;-85
2022/07/29 08:34:58;;;;;;;8.60;6.22;;;;;;;;;;5061516;28;20048;-84
2022/07/29 08:37:24;;;;;;;11.10;7.43;;;;;;;;;;5061415;28;20522;-84
2022/07/29 08:39:50;;;;;;;9.13;6.68;;;;;;;;;;5059122;28;20028;-83
2022/07/29 08:42:16;;;;;;;10.00;6.97;;;;;;;;;;5058756;28;20439;-84
2022/07/29 08:44:43;;;;;;;9.80;7.35;;;;;;;;;;5057422;28;20025;-84
2022/07/29 08:47:09;;;;;;;10.90;7.25;;;;;;;;;;5057636;28;20398;-84
2022/07/29 08:49:35;;;;;;;10.43;6.60;;;;;;;;;;5055819;28;20103;-84
2022/07/29 08:52:02;;;;;;;9.98;6.82;;;;;;;;;;5057344;28;20013;-84
2022/07/29 08:54:29;;;;;;;9.18;7.00;;;;;;;;;;5059765;28;20394;-84
2022/07/29 08:56:55;;;;;;;8.70;6.45;;;;;;;;;;5060848;28;20045;-85
2022/07/29 08:59:23;;;;;;;9.00;6.68;;;;;;;;;;5075226;28;20060;-85
2022/07/29 09:01:51;;;;;;;8.65;7.13;;;;;;;;;;5062240;28;20113;-83
2022/07/29 09:04:18;;;;;;;7.53;6.30;;;;;;;;;;5060923;28;20029;-85
2022/07/29 09:06:45;;;;;;;8.68;7.00;;;;;;;;;;5049806;28;20051;-84
2022/07/29 09:09:13;;;;;;;8.13;6.13;;;;;;;;;;5054482;28;20116;-85
2022/07/29 09:11:40;;;;;;;8.23;6.13;;;;;;;;;;5059072;28;20036;-83
2022/07/29 09:14:06;;;;;;;8.25;6.43;;;;;;;;;;5051188;28;20028;-84
2022/07/29 09:16:56;;;;;;;7.53;6.18;;;;;;;;;;5062558;28;20155;-84
2022/07/29 09:19:33;;;;;;;7.22;6.00;;;;;;;;;;5044163;28;20056;-83
2022/07/29 09:22:02;;;;;;;7.47;6.05;;;;;;;;;;5038605;28;20479;-83
2022/07/29 09:24:58;;;;;;;11.52;6.68;;;;;;;;;;5035863;28;20040;-83
2022/07/29 09:27:26;;;;;;;8.57;6.32;;;;;;;;;;5033749;28;20040;-83
2022/07/29 09:30:04;;;;;;;9.13;6.25;;;;;;;;;;5058128;28;20021;-83
2022/07/29 09:32:31;;;;;;;9.52;6.75;;;;;;;;;;5059217;28;20049;-82
2022/07/29 09:35:16;;;;;;;7.45;5.85;;;;;;;;;;5059637;28;20071;-82
2022/07/29 09:37:42;;;;;;;7.47;5.65;;;;;;;;;;5069404;28;20021;-81
2022/07/29 09:40:12;;;;;;;7.63;5.70;;;;;;;;;;5057514;28;20038;-82
2022/07/29 09:42:38;;;;;;;8.95;5.72;;;;;;;;;;5073258;28;20027;-84
2022/07/29 09:45:04;;;;;;;7.57;5.85;;;;;;;;;;5056124;28;21092;-81
2022/07/29 09:47:44;;;;;;;8.68;6.50;;;;;;;;;;5058669;28;20475;-82
2022/07/29 09:50:11;;;;;;;7.13;5.55;;;;;;;;;;5058761;28;20115;-83
2022/07/29 09:52:45;;;;;;;8.38;5.80;;;;;;;;;;5058041;28;20025;-83
2022/07/29 09:55:11;;;;;;;9.18;6.35;;;;;;;;;;5055522;28;20029;-82
2022/07/29 09:57:37;;;;;;;9.30;6.00;;;;;;;;;;5069315;28;20032;-83
2022/07/29 10:00:10;;;;;;;7.45;5.60;;;;;;;;;;5067241;28;20029;-83
2022/07/29 10:02:38;;;;;;;6.63;5.85;;;;;;;;;;5058249;28;20025;-83
2022/07/29 10:05:05;;;;;;;6.85;5.63;;;;;;;;;;5062709;28;20518;-80
2022/07/29 10:07:48;;;;;;;8.50;6.35;;;;;;;;;;5059452;28;20028;-84
2022/07/29 10:10:30;;;;;;;7.10;5.30;;;;;;;;;;5059775;28;20025;-83
2022/07/29 10:12:56;;;;;;;;;;;;;;;;;;5059289;28;20066;-84
2022/07/29 10:15:23;;;;;;;6.75;5.43;;;;;;;;;;5054777;28;19908;-83
2022/07/29 10:17:50;;;;;;;7.88;5.30;;;;;;;;;;5059297;28;20647;-82
2022/07/29 10:20:16;;;;;;;6.63;5.32;;;;;;;;;;5058802;28;20029;-83
2022/07/29 10:22:43;;;;;;;7.00;5.85;;;;;;;;;;5078848;28;20569;-82
2022/07/29 10:25:10;;;;;;;7.38;5.90;;;;;;;;;;5062641;28;20084;-82
2022/07/29 10:27:36;;;;;;;7.90;6.38;;;;;;;;;;5060504;28;20025;-83
2022/07/29 10:30:04;;;;;;;7.72;5.88;;;;;;;;;;5031627;28;20068;-82
2022/07/29 10:32:40;;;;;;;7.90;5.50;;;;;;;;;;5056156;28;20021;-82
2022/07/29 10:35:11;;;;;;;6.63;5.32;;;;;;;;;;5044810;28;20027;-82
2022/07/29 10:37:53;;;;;;;7.10;5.78;;;;;;;;;;5057349;28;20025;-83
2022/07/29 10:43:30;;;;;;;6.82;5.60;;;;;;;;;;5058149;28;20056;-84
2022/07/29 10:46:00;;;;;;;7.32;6.50;;;;;;;;;;5068889;28;20092;-82
2022/07/29 10:48:26;;;;;;;7.57;5.53;;;;;;;;;;5057353;28;20033;-83
2022/07/29 10:50:56;;;;;;;7.50;5.80;;;;;;;;;;5049864;28;20032;-84
2022/07/29 10:53:23;;;;;;;7.45;5.75;;;;;;;;;;5057720;28;20035;-83
2022/07/29 10:55:50;;;;;;;8.05;5.40;;;;;;;;;;5054305;28;20020;-83
2022/07/29 10:58:20;;;;;;;7.88;5.57;;;;;;;;;;5065417;28;20108;-83
2022/07/29 11:00:47;;;;;;;7.38;5.75;;;;;;;;;;5061542;28;20553;-83
2022/07/29 11:03:32;;;;;;;7.20;5.90;;;;;;;;;;5059027;28;20085;-82
2022/07/29 11:05:58;;;;;;;7.38;5.68;;;;;;;;;;5063015;28;20033;-84
2022/07/29 11:08:25;;;;;;;8.43;6.65;;;;;;;;;;5067083;28;20028;-82
2022/07/29 11:10:53;;;;;;;7.80;5.88;;;;;;;;;;5063280;28;20041;-83
2022/07/29 11:13:57;;;;;;;8.32;6.43;;;;;;;;;;5057054;28;20082;-84
2022/07/29 11:16:23;;;;;;;7.03;5.65;;;;;;;;;;4957502;29;20039;-84
2022/07/29 11:19:08;;;;;;;7.32;6.25;;;;;;;;;;4958952;28;20046;-84
2022/07/29 11:21:37;;;;;;;6.82;5.97;;;;;;;;;;4957511;28;20253;-83
2022/07/29 11:24:16;;;;;;;7.63;5.72;;;;;;;;;;4958220;28;20042;-84
2022/07/29 11:26:42;;;;;;;7.80;6.38;;;;;;;;;;4937972;29;20042;-84
2022/07/29 11:29:17;;;;;;;7.28;6.13;;;;;;;;;;4953862;28;20137;-83
2022/07/29 11:31:46;;;;;;;7.90;5.80;;;;;;;;;;4954638;28;20043;-84
2022/07/29 11:34:24;;;;;;;9.15;5.50;;;;;;;;;;4957415;28;20047;-82
2022/07/29 11:37:13;;;;;;;9.32;6.40;;;;;;;;;;4956952;28;20031;-82
2022/07/29 11:39:40;;;;;;;8.77;5.55;;;;;;;;;;4950797;28;20035;-84
2022/07/29 11:42:21;;;;;;;6.93;5.80;;;;;;;;;;4962653;28;20027;-83
2022/07/29 11:45:05;;;;;;;8.38;5.60;;;;;;;;;;4964275;28;20035;-81
2022/07/29 11:47:31;;;;;;;9.93;6.65;;;;;;;;;;5016795;28;20163;-84
2022/07/29 11:49:59;;;;;;;6.88;5.68;;;;;;;;;;5062933;28;20020;-82
2022/07/29 11:52:37;;;;;;;7.43;5.65;;;;;;;;;;5072974;28;20021;-82
2022/07/29 11:55:04;;;;;;;6.90;5.75;;;;;;;;;;5047238;28;20025;-84
2022/07/29 11:57:31;;;;;;;8.57;6.30;;;;;;;;;;5057331;28;20020;-83
2022/07/29 11:59:58;;;;;;;7.32;6.00;;;;;;;;;;5062961;28;20120;-83
2022/07/29 12:02:24;;;;;;;6.70;5.65;;;;;;;;;;5072933;28;20029;-83
2022/07/29 12:04:58;;;;;;;7.57;6.05;;;;;;;;;;5061635;28;20172;-83
2022/07/29 12:07:31;;;;;;;9.60;6.03;;;;;;;;;;5060317;28;20017;-83
2022/07/29 12:09:57;;;;;;;6.90;5.60;;;;;;;;;;5077421;28;20036;-83
2022/07/29 12:12:23;;;;;;;8.60;6.45;;;;;;;;;;5043081;28;20105;-83
2022/07/29 12:14:49;;;;;;;7.22;5.75;;;;;;;;;;5042834;28;20433;-84
2022/07/29 12:17:28;;;;;;;6.63;5.65;;;;;;;;;;5061155;28;20032;-82
2022/07/29 12:19:55;;;;;;;7.60;5.43;;;;;;;;;;5063046;28;20036;-83
2022/07/29 12:22:27;;;;;;;7.47;5.80;;;;;;;;;;5079669;28;20035;-83
2022/07/29 12:24:54;;;;;;;7.95;5.30;;;;;;;;;;5075232;28;20032;-83
2022/07/29 12:27:20;;;;;;;7.47;5.60;;;;;;;;;;5060785;28;20113;-83
2022/07/29 12:29:56;;;;;;;7.68;5.55;;;;;;;;;;5060828;28;20491;-84
2022/07/29 12:32:22;;;;;;;8.60;5.68;;;;;;;;;;5079023;28;20027;-84
2022/07/29 12:34:48;;;;;;;8.00;5.57;;;;;;;;;;5080739;28;20119;-83
2022/07/29 12:37:14;;;;;;;8.77;6.07;;;;;;;;;;5080909;28;20021;-84
2022/07/29 12:39:40;;;;;;;8.65;5.93;;;;;;;;;;5079895;28;20051;-82
2022/07/29 12:42:17;;;;;;;7.65;5.60;;;;;;;;;;5062122;28;20033;-83
2022/07/29 12:44:44;;;;;;;7.53;6.10;;;;;;;;;;5058805;28;20036;-84
2022/07/29 12:47:10;;;;;;;9.75;5.95;;;;;;;;;;5054804;28;20037;-83
2022/07/29 12:49:36;;;;;;;8.65;5.70;;;;;;;;;;5062022;28;20072;-83
2022/07/29 12:52:22;;;;;;;7.50;5.93;;;;;;;;;;5060545;28;20036;-84
2022/07/29 12:54:48;;;;;;;6.40;5.30;;;;;;;;;;5058672;28;20029;-84
2022/07/29 12:57:14;;;;;;;7.85;5.63;;;;;;;;;;5058140;28;20028;-83
2022/07/29 12:59:40;;;;;;;8.40;6.35;;;;;;;;;;5056806;28;20029;-83
2022/07/29 13:02:07;;;;;;;6.53;5.40;;;;;;;;;;5057951;28;20116;-84
2022/07/29 13:04:36;;;;;;;7.63;5.55;;;;;;;;;;5041763;28;20021;-83
2022/07/29 13:07:08;;;;;;;6.40;5.43;;;;;;;;;;5060113;28;20025;-83
2022/07/29 13:09:38;;;;;;;8.13;5.93;;;;;;;;;;5059059;28;20447;-83
2022/07/29 13:12:09;;;;;;;7.35;5.75;;;;;;;;;;5059627;28;20025;-84
2022/07/29 13:14:41;;;;;;;7.15;5.43;;;;;;;;;;5061582;28;20024;-83
2022/07/29 13:17:08;;;;;;;7.50;5.80;;;;;;;;;;5080052;28;20024;-84
2022/07/29 13:19:42;;;;;;;6.88;5.25;;;;;;;;;;5059101;28;20096;-83
2022/07/29 13:22:09;;;;;;;6.80;5.57;;;;;;;;;;5059520;28;20126;-84
2022/07/29 13:24:45;;;;;;;6.95;5.50;;;;;;;;;;5079652;28;20032;-84
2022/07/29 13:27:11;;;;;;;7.00;6.00;;;;;;;;;;5079418;28;20034;-84
2022/07/29 13:29:39;;;;;;;7.45;5.70;;;;;;;;;;5077899;28;20068;-84
2022/07/29 13:32:06;;;;;;;8.18;5.93;;;;;;;;;;5081104;28;20382;-84
2022/07/29 13:34:32;;;;;;;7.78;5.55;;;;;;;;;;5081928;28;20021;-83
2022/07/29 13:36:58;;;;;;;8.20;5.28;;;;;;;;;;5068538;28;20025;-83
2022/07/29 13:39:24;;;;;;;7.70;6.00;;;;;;;;;;5058626;28;20028;-84
2022/07/29 13:41:50;;;;;;;7.18;5.65;;;;;;;;;;5058799;28;20033;-84
2022/07/29 13:44:16;;;;;;;8.55;5.57;;;;;;;;;;5058566;28;20029;-84
2022/07/29 13:46:42;;;;;;;7.68;6.15;;;;;;;;;;5057830;28;20079;-84
2022/07/29 13:49:08;;;;;;;8.95;6.13;;;;;;;;;;5039117;28;20043;-83
2022/07/29 13:51:34;;;;;;;7.38;6.28;;;;;;;;;;5059102;28;20272;-84
2022/07/29 13:53:59;;;;;;;8.57;5.90;;;;;;;;;;5059466;28;20020;-83
2022/07/29 13:56:26;;;;;;;6.85;6.03;;;;;;;;;;5057252;28;20025;-84
2022/07/29 13:58:52;;;;;;;6.82;5.88;;;;;;;;;;5071286;28;20090;-84
2022/07/29 14:01:18;;;;;;;7.68;6.30;;;;;;;;;;5078077;28;20491;-85
2022/07/29 14:03:44;;;;;;;7.13;5.82;;;;;;;;;;5058428;28;20046;-84
2022/07/29 14:06:10;;;;;;;8.90;6.00;;;;;;;;;;5058296;28;20506;-84
2022/07/29 14:08:36;;;;;;;8.60;6.50;;;;;;;;;;5058785;28;20104;-85
2022/07/29 14:11:02;;;;;;;9.15;6.07;;;;;;;;;;5058995;28;20017;-85
2022/07/29 14:13:28;;;;;;;7.43;6.10;;;;;;;;;;5056980;28;20459;-85
2022/07/29 14:15:54;;;;;;;9.05;6.53;;;;;;;;;;5070825;28;20410;-84
2022/07/29 14:18:20;;;;;;;8.68;6.13;;;;;;;;;;5066962;28;20066;-84
2022/07/29 14:20:46;;;;;;;7.85;6.43;;;;;;;;;;5063782;28;20029;-85
2022/07/29 14:23:12;;;;;;;9.60;7.35;;;;;;;;;;5076385;28;20028;-84
2022/07/29 14:25:38;;;;;;;9.32;6.75;;;;;;;;;;5057549;28;20119;-84
2022/07/29 14:28:05;;;;;;;9.05;6.70;;;;;;;;;;5041887;28;20044;-83
2022/07/29 14:30:30;;;;;;;9.70;7.13;;;;;;;;;;5057759;28;20029;-85
2022/07/29 14:32:57;;;;;;;8.13;6.93;;;;;;;;;;5052931;28;20482;-85
2022/07/29 14:35:23;;;;;;;9.80;7.32;;;;;;;;;;5052985;28;20096;-85
2022/07/29 14:37:48;;;;;;;9.20;7.30;;;;;;;;;;5040714;28;20134;-84
2022/07/29 14:40:14;;;;;;;10.55;7.57;;;;;;;;;;5056672;28;20169;-85
2022/07/29 14:42:41;;;;;;;8.73;7.78;;;;;;;;;;5059150;28;20044;-85
2022/07/29 14:45:08;;;;;;;9.73;7.68;;;;;;;;;;5061767;28;20025;-84
2022/07/29 14:47:34;;;;;;;12.98;7.95;;;;;;;;;;5056108;28;20467;-84
2022/07/29 14:50:00;;;;;;;9.43;7.32;;;;;;;;;;5042423;28;20025;-85
2022/07/29 14:52:26;;;;;;;9.70;7.68;;;;;;;;;;5045170;28;20017;-84
2022/07/29 14:54:52;;;;;;;11.15;8.60;;;;;;;;;;5081150;28;20050;-84
2022/07/29 14:57:18;;;;;;;12.30;8.75;;;;;;;;;;5048842;28;20024;-84
2022/07/29 14:59:44;;;;;;;9.88;8.48;;;;;;;;;;5057474;28;20024;-83
2022/07/29 15:02:10;;;;;;;11.70;9.05;;;;;;;;;;5080064;28;20052;-85